createdAt,value
2018-06-07T00:00:35.027Z,99.90
2018-06-07T00:03:03.246Z,99.90
2018-06-07T00:05:31.398Z,99.90
2018-06-07T00:07:59.602Z,99.90
2018-06-07T00:10:27.855Z,99.90
2018-06-07T00:12:56.059Z,99.90
2018-06-07T00:17:51.949Z,99.90
2018-06-07T00:20:20.198Z,99.90
2018-06-07T00:22:48.507Z,99.90
2018-06-07T00:25:16.730Z,99.90
2018-06-07T00:27:44.985Z,99.90
2018-06-07T00:30:13.197Z,99.90
2018-06-07T00:32:41.442Z,99.90
2018-06-07T00:35:09.655Z,99.90
2018-06-07T00:37:37.894Z,99.90
2018-06-07T00:40:06.110Z,99.90
2018-06-07T00:42:34.306Z,99.90
2018-06-07T00:45:02.669Z,99.90
2018-06-07T00:47:30.951Z,99.90
2018-06-07T00:49:59.162Z,99.90
2018-06-07T00:52:27.338Z,99.90
2018-06-07T00:54:55.458Z,99.90
2018-06-07T00:57:23.707Z,99.90
2018-06-07T00:59:51.988Z,99.90
2018-06-07T01:02:20.262Z,99.90
2018-06-07T01:04:48.517Z,99.90
2018-06-07T01:07:16.721Z,99.90
2018-06-07T01:09:44.894Z,99.90
2018-06-07T01:12:13.162Z,99.90
2018-06-07T01:14:41.437Z,99.90
2018-06-07T01:17:09.706Z,99.90
2018-06-07T01:19:37.912Z,99.90
2018-06-07T01:22:05.924Z,99.90
2018-06-07T01:24:34.200Z,99.90
2018-06-07T01:27:02.543Z,99.90
2018-06-07T01:29:36.327Z,99.90
2018-06-07T01:32:28.264Z,99.90
2018-06-07T01:34:56.511Z,99.90
2018-06-07T01:37:24.654Z,99.90
2018-06-07T01:39:52.782Z,99.90
2018-06-07T01:42:20.987Z,99.90
2018-06-07T01:44:49.198Z,99.90
2018-06-07T01:47:17.480Z,99.90
2018-06-07T01:49:45.671Z,99.90
2018-06-07T01:52:13.962Z,99.90
2018-06-07T01:54:42.222Z,99.90
2018-06-07T01:57:10.479Z,99.90
2018-06-07T01:59:38.750Z,99.90
2018-06-07T02:02:06.972Z,99.90
2018-06-07T02:04:35.212Z,99.90
2018-06-07T02:07:03.399Z,99.90
2018-06-07T02:09:31.570Z,99.90
2018-06-07T02:11:59.903Z,99.90
2018-06-07T02:14:28.146Z,99.90
2018-06-07T02:16:56.383Z,99.90
2018-06-07T02:19:24.622Z,99.90
2018-06-07T02:21:52.839Z,99.90
2018-06-07T02:24:21.103Z,99.90
2018-06-07T02:26:49.351Z,99.90
2018-06-07T02:29:17.647Z,99.90
2018-06-07T02:31:45.934Z,99.90
2018-06-07T02:34:14.164Z,99.90
2018-06-07T02:36:42.354Z,99.90
2018-06-07T02:39:10.535Z,99.90
2018-06-07T02:41:38.804Z,99.90
2018-06-07T02:44:07.022Z,99.90
2018-06-07T02:46:35.263Z,99.90
2018-06-07T02:49:03.518Z,99.90
2018-06-07T02:51:31.735Z,99.90
2018-06-07T02:53:59.986Z,99.90
2018-06-07T02:56:28.240Z,99.90
2018-06-07T02:58:56.407Z,99.90
2018-06-07T03:01:24.652Z,99.90
2018-06-07T03:03:52.845Z,99.90
2018-06-07T03:06:21.102Z,99.90
2018-06-07T03:08:49.366Z,99.90
2018-06-07T03:11:17.686Z,99.90
2018-06-07T03:13:45.954Z,99.90
2018-06-07T03:16:14.166Z,99.90
2018-06-07T03:18:42.436Z,99.90
2018-06-07T03:21:10.680Z,99.90
2018-06-07T03:23:38.968Z,99.90
2018-06-07T03:26:07.244Z,99.90
2018-06-07T03:28:35.518Z,99.90
2018-06-07T03:31:03.760Z,99.90
2018-06-07T03:33:32.077Z,99.90
2018-06-07T03:36:00.318Z,99.90
2018-06-07T03:38:28.496Z,99.90
2018-06-07T03:40:56.670Z,99.90
2018-06-07T03:43:24.910Z,99.90
2018-06-07T03:45:53.121Z,99.90
2018-06-07T03:48:21.346Z,99.90
2018-06-07T03:50:49.605Z,99.90
2018-06-07T03:53:17.975Z,99.90
2018-06-07T03:55:46.166Z,99.90
2018-06-07T03:58:14.409Z,99.90
2018-06-07T04:00:42.677Z,99.90
2018-06-07T04:03:10.926Z,99.90
2018-06-07T04:05:39.124Z,99.90
2018-06-07T04:08:07.413Z,99.90
2018-06-07T04:10:35.752Z,99.90
2018-06-07T04:13:04.062Z,99.90
2018-06-07T04:15:32.269Z,99.90
2018-06-07T04:18:00.544Z,99.90
2018-06-07T04:20:28.794Z,99.90
2018-06-07T04:22:57.017Z,99.90
2018-06-07T04:25:25.274Z,99.90
2018-06-07T04:27:53.526Z,99.90
2018-06-07T04:30:21.782Z,99.90
2018-06-07T04:32:50.043Z,99.90
2018-06-07T04:35:18.360Z,99.90
2018-06-07T04:37:46.589Z,99.90
2018-06-07T04:40:14.851Z,99.90
2018-06-07T04:42:43.107Z,99.90
2018-06-07T04:45:11.414Z,99.90
2018-06-07T04:47:39.609Z,99.90
2018-06-07T04:50:07.851Z,99.90
2018-06-07T04:52:36.171Z,99.90
2018-06-07T04:55:04.483Z,99.90
2018-06-07T04:57:32.733Z,99.90
2018-06-07T05:00:00.934Z,99.90
2018-06-07T05:02:29.118Z,99.90
2018-06-07T05:04:57.276Z,99.90
2018-06-07T05:07:25.515Z,99.90
2018-06-07T05:09:53.744Z,99.90
2018-06-07T05:12:21.977Z,99.90
2018-06-07T05:14:50.198Z,99.90
2018-06-07T05:17:18.453Z,99.90
2018-06-07T05:19:46.694Z,99.90
2018-06-07T05:22:14.942Z,99.90
2018-06-07T05:24:43.137Z,99.90
2018-06-07T05:27:11.304Z,99.90
2018-06-07T05:29:39.554Z,99.90
2018-06-07T05:32:07.801Z,99.90
2018-06-07T05:34:35.951Z,99.90
2018-06-07T05:37:04.179Z,99.90
2018-06-07T05:39:32.418Z,99.90
2018-06-07T05:42:00.657Z,99.90
2018-06-07T05:44:28.932Z,99.90
2018-06-07T05:46:57.231Z,99.90
2018-06-07T05:49:25.449Z,99.90
2018-06-07T05:51:53.676Z,99.90
2018-06-07T05:54:23.870Z,99.90
2018-06-07T05:56:52.277Z,99.90
2018-06-07T05:59:20.489Z,99.90
2018-06-07T06:01:48.644Z,99.90
2018-06-07T06:04:16.845Z,99.90
2018-06-07T06:06:45.116Z,99.90
2018-06-07T06:09:13.438Z,99.90
2018-06-07T06:11:41.722Z,99.90
2018-06-07T06:14:09.980Z,99.90
2018-06-07T06:16:38.163Z,99.90
2018-06-07T06:19:06.445Z,99.90
2018-06-07T06:21:34.693Z,99.90
2018-06-07T06:24:02.930Z,99.90
2018-06-07T06:26:31.115Z,99.90
2018-06-07T06:28:59.339Z,99.90
2018-06-07T06:31:27.586Z,99.90
2018-06-07T06:33:55.798Z,99.90
2018-06-07T06:36:24.050Z,99.90
2018-06-07T06:38:52.462Z,99.90
2018-06-07T06:41:20.659Z,99.90
2018-06-07T06:43:48.881Z,99.90
2018-06-07T06:46:17.090Z,99.90
2018-06-07T06:48:45.278Z,99.90
2018-06-07T06:51:13.503Z,99.90
2018-06-07T06:53:41.729Z,99.90
2018-06-07T06:56:09.956Z,99.90
2018-06-07T06:58:38.210Z,99.90
2018-06-07T07:01:06.438Z,99.90
2018-06-07T07:03:34.661Z,99.90
2018-06-07T07:06:02.805Z,99.90
2018-06-07T07:08:31.079Z,99.90
2018-06-07T07:10:59.296Z,99.90
2018-06-07T07:13:27.582Z,99.90
2018-06-07T07:15:55.847Z,99.90
2018-06-07T07:18:24.050Z,99.90
2018-06-07T07:20:52.262Z,99.90
2018-06-07T07:23:20.582Z,99.90
2018-06-07T07:25:48.862Z,99.90
2018-06-07T07:28:17.187Z,99.90
2018-06-07T07:30:45.415Z,99.90
2018-06-07T07:33:13.665Z,99.90
2018-06-07T07:35:41.871Z,99.90
2018-06-07T07:38:10.112Z,99.90
2018-06-07T07:40:38.330Z,99.90
2018-06-07T07:43:06.554Z,99.90
2018-06-07T07:45:34.730Z,99.90
2018-06-07T07:48:02.826Z,99.90
2018-06-07T07:50:31.007Z,99.90
2018-06-07T07:52:59.242Z,99.90
2018-06-07T07:55:27.369Z,99.90
2018-06-07T07:57:55.446Z,99.90
2018-06-07T08:02:51.102Z,99.90
2018-06-07T08:05:19.166Z,99.90
2018-06-07T08:07:47.224Z,99.90
2018-06-07T08:10:15.281Z,99.90
2018-06-07T08:12:43.301Z,99.90
2018-06-07T08:15:11.372Z,99.90
2018-06-07T08:17:39.529Z,99.90
2018-06-07T08:20:07.650Z,99.80
2018-06-07T08:22:35.777Z,98.80
2018-06-07T08:25:03.942Z,99.90
2018-06-07T08:27:32.042Z,98.00
2018-06-07T08:30:00.151Z,98.50
2018-06-07T08:32:28.206Z,97.60
2018-06-07T08:34:56.302Z,97.80
2018-06-07T08:37:24.369Z,99.90
2018-06-07T08:39:52.434Z,96.50
2018-06-07T08:42:20.495Z,94.90
2018-06-07T08:44:48.551Z,94.40
2018-06-07T08:47:16.638Z,96.30
2018-06-07T08:49:44.702Z,96.70
2018-06-07T08:52:12.778Z,93.80
2018-06-07T08:54:45.059Z,92.80
2018-06-07T08:57:13.138Z,92.70
2018-06-07T08:59:41.206Z,93.70
2018-06-07T09:02:09.249Z,91.10
2018-06-07T09:04:37.357Z,91.80
2018-06-07T09:07:05.455Z,92.50
2018-06-07T09:09:34.547Z,94.60
2018-06-07T09:12:02.681Z,91.70
2018-06-07T09:14:30.754Z,88.90
2018-06-07T09:16:58.830Z,90.00
2018-06-07T09:19:26.917Z,87.00
2018-06-07T09:21:55.005Z,90.00
2018-06-07T09:24:23.054Z,90.30
2018-06-07T09:26:51.090Z,86.70
2018-06-07T09:29:19.192Z,86.10
2018-06-07T09:31:47.266Z,87.50
2018-06-07T09:34:15.334Z,89.90
2018-06-07T09:36:43.405Z,86.70
2018-06-07T09:39:11.455Z,83.30
2018-06-07T09:41:39.560Z,86.40
2018-06-07T09:44:07.627Z,83.70
2018-06-07T09:46:35.779Z,83.80
2018-06-07T09:49:03.930Z,82.00
2018-06-07T09:51:31.958Z,79.90
2018-06-07T09:54:00.050Z,85.20
2018-06-07T09:56:28.106Z,84.20
2018-06-07T09:58:56.177Z,81.00
2018-06-07T10:01:24.277Z,83.80
2018-06-07T10:03:52.329Z,83.30
2018-06-07T10:06:20.438Z,81.10
2018-06-07T10:08:48.486Z,81.60
2018-06-07T10:11:16.570Z,82.20
2018-06-07T10:13:44.642Z,82.80
2018-06-07T10:16:12.700Z,85.30
2018-06-07T10:18:40.790Z,81.80
2018-06-07T10:21:08.849Z,80.10
2018-06-07T10:23:36.951Z,80.40
2018-06-07T10:26:05.085Z,79.70
2018-06-07T10:28:33.147Z,79.60
2018-06-07T10:31:01.285Z,80.00
2018-06-07T10:33:29.351Z,80.90
2018-06-07T10:35:57.446Z,82.30
2018-06-07T10:38:25.553Z,82.50
2018-06-07T10:40:53.634Z,82.20
2018-06-07T10:43:21.714Z,82.00
2018-06-07T10:45:49.766Z,83.40
2018-06-07T10:48:17.869Z,82.10
2018-06-07T10:50:45.953Z,83.60
2018-06-07T10:53:14.026Z,80.80
2018-06-07T10:55:42.107Z,81.30
2018-06-07T10:58:10.186Z,82.50
2018-06-07T11:00:38.285Z,80.90
2018-06-07T11:03:06.354Z,81.90
2018-06-07T11:05:34.387Z,84.00
2018-06-07T11:08:02.498Z,81.20
2018-06-07T11:10:30.536Z,81.80
2018-06-07T11:12:58.630Z,83.70
2018-06-07T11:15:26.678Z,77.50
2018-06-07T11:17:54.781Z,77.30
2018-06-07T11:20:22.868Z,79.70
2018-06-07T11:22:50.889Z,78.60
2018-06-07T11:25:18.992Z,80.50
2018-06-07T11:27:47.030Z,78.20
2018-06-07T11:30:15.145Z,78.30
2018-06-07T11:32:43.297Z,78.20
2018-06-07T11:35:11.366Z,77.90
2018-06-07T11:37:39.462Z,77.80
2018-06-07T11:40:07.505Z,79.30
2018-06-07T11:42:35.587Z,81.50
2018-06-07T11:45:03.790Z,81.90
2018-06-07T11:47:31.846Z,82.20
2018-06-07T11:49:59.959Z,81.80
2018-06-07T11:52:28.005Z,82.60
2018-06-07T11:54:56.190Z,83.70
2018-06-07T11:57:24.284Z,86.10
2018-06-07T11:59:52.346Z,90.70
2018-06-07T12:02:20.432Z,89.30
2018-06-07T12:04:48.480Z,90.40
2018-06-07T12:07:16.588Z,90.40
2018-06-07T12:09:44.688Z,91.20
2018-06-07T12:12:12.762Z,90.60
2018-06-07T12:14:40.857Z,90.00
2018-06-07T12:17:08.911Z,90.40
2018-06-07T12:19:37.020Z,90.00
2018-06-07T12:22:05.188Z,89.20
2018-06-07T12:24:33.258Z,89.70
2018-06-07T12:27:01.346Z,87.40
2018-06-07T12:29:29.401Z,90.00
2018-06-07T12:31:57.526Z,88.80
2018-06-07T12:34:25.647Z,86.00
2018-06-07T12:36:53.724Z,88.30
2018-06-07T12:39:21.792Z,92.30
2018-06-07T12:41:49.850Z,92.10
2018-06-07T12:44:17.917Z,92.30
2018-06-07T12:46:46.345Z,90.60
2018-06-07T12:49:14.413Z,92.40
2018-06-07T12:51:42.510Z,92.50
2018-06-07T12:56:38.187Z,90.70
2018-06-07T12:59:06.297Z,92.70
2018-06-07T13:01:34.369Z,90.40
2018-06-07T13:04:02.441Z,92.90
2018-06-07T13:06:30.489Z,91.50
2018-06-07T13:08:58.609Z,91.70
2018-06-07T13:11:26.682Z,93.20
2018-06-07T13:13:54.733Z,92.00
2018-06-07T13:16:22.881Z,95.60
2018-06-07T13:18:51.053Z,95.50
2018-06-07T13:21:19.216Z,95.80
2018-06-07T13:23:47.368Z,94.60
2018-06-07T13:26:15.563Z,95.80
2018-06-07T13:28:43.718Z,93.40
2018-06-07T13:31:11.833Z,94.30
2018-06-07T13:33:39.914Z,94.90
2018-06-07T13:36:08.043Z,96.40
2018-06-07T13:38:36.153Z,96.80
2018-06-07T13:41:04.220Z,94.10
2018-06-07T13:43:32.270Z,97.20
2018-06-07T13:46:00.358Z,96.80
2018-06-07T13:48:28.493Z,98.50
2018-06-07T13:50:56.563Z,99.00
2018-06-07T13:53:24.803Z,98.70
2018-06-07T13:55:52.869Z,97.30
2018-06-07T13:58:20.963Z,96.30
2018-06-07T14:00:49.046Z,97.90
2018-06-07T14:03:17.089Z,99.80
2018-06-07T14:05:45.186Z,99.30
2018-06-07T14:08:13.233Z,99.90
2018-06-07T14:10:41.306Z,98.00
2018-06-07T14:15:36.970Z,99.90
2018-06-07T14:18:05.122Z,98.70
2018-06-07T14:23:00.773Z,99.90
2018-06-07T14:25:28.862Z,99.60
2018-06-07T14:27:56.947Z,99.90
2018-06-07T14:30:25.094Z,99.90
2018-06-07T14:32:53.144Z,99.00
2018-06-07T14:35:21.328Z,99.90
2018-06-07T14:37:49.409Z,99.90
2018-06-07T14:40:17.478Z,99.90
2018-06-07T14:42:45.586Z,99.90
2018-06-07T14:45:13.642Z,99.90
2018-06-07T14:47:41.746Z,99.90
2018-06-07T14:50:09.852Z,99.90
2018-06-07T14:52:37.905Z,99.90
2018-06-07T14:55:06.026Z,99.90
2018-06-07T14:57:34.109Z,99.90
2018-06-07T15:00:02.281Z,99.90
2018-06-07T15:02:30.363Z,99.90
2018-06-07T15:04:58.413Z,99.90
2018-06-07T15:07:26.521Z,99.90
2018-06-07T15:09:54.553Z,99.90
2018-06-07T15:12:22.616Z,99.90
2018-06-07T15:14:50.706Z,99.90
2018-06-07T15:17:18.791Z,99.90
2018-06-07T15:19:46.884Z,99.90
2018-06-07T15:22:14.973Z,99.90
2018-06-07T15:24:43.082Z,99.90
2018-06-07T15:27:11.138Z,99.90
2018-06-07T15:29:39.229Z,99.90
2018-06-07T15:32:07.301Z,99.90
2018-06-07T15:34:35.370Z,99.90
2018-06-07T15:37:03.509Z,99.90
2018-06-07T15:39:31.609Z,99.90
2018-06-07T15:41:59.714Z,99.90
2018-06-07T15:44:27.807Z,99.90
2018-06-07T15:46:55.857Z,99.90
2018-06-07T15:51:30.501Z,99.90
2018-06-07T15:53:58.647Z,99.90
2018-06-07T15:56:26.725Z,99.90
2018-06-07T15:58:54.778Z,99.90
2018-06-07T16:01:22.876Z,99.50
2018-06-07T16:03:50.934Z,99.90
2018-06-07T16:06:19.005Z,99.20
2018-06-07T16:08:47.089Z,98.60
2018-06-07T16:11:15.183Z,98.00
2018-06-07T16:13:43.285Z,98.10
2018-06-07T16:18:39.006Z,98.40
2018-06-07T16:21:07.073Z,98.60
2018-06-07T16:23:35.143Z,98.40
2018-06-07T16:26:03.257Z,98.30
2018-06-07T16:28:31.464Z,98.20
2018-06-07T16:30:59.545Z,98.20
2018-06-07T16:33:34.246Z,98.20
2018-06-07T16:36:02.408Z,98.00
2018-06-07T16:38:30.508Z,97.30
2018-06-07T16:40:58.555Z,97.60
2018-06-07T16:43:26.630Z,97.30
2018-06-07T16:45:54.707Z,97.80
2018-06-07T16:48:22.803Z,98.30
2018-06-07T16:50:50.887Z,97.30
2018-06-07T16:53:18.934Z,97.20
2018-06-07T16:55:47.005Z,97.80
2018-06-07T16:58:15.138Z,97.60
2018-06-07T17:00:43.280Z,97.20
2018-06-07T17:03:13.721Z,97.90
2018-06-07T17:05:41.869Z,98.20
2018-06-07T17:08:09.994Z,98.00
2018-06-07T17:10:38.150Z,98.30
2018-06-07T17:13:06.317Z,97.80
2018-06-07T17:15:36.449Z,98.20
2018-06-07T17:18:04.540Z,98.00
2018-06-07T17:20:32.642Z,98.20
2018-06-07T17:23:00.693Z,97.50
2018-06-07T17:25:28.793Z,99.50
2018-06-07T17:27:56.902Z,99.10
2018-06-07T17:30:24.934Z,99.40
2018-06-07T17:32:53.026Z,99.00
2018-06-07T17:35:21.121Z,99.20
2018-06-07T17:37:51.253Z,99.80
2018-06-07T17:40:19.318Z,99.90
2018-06-07T17:42:47.379Z,99.90
2018-06-07T17:45:15.467Z,99.90
2018-06-07T17:47:43.510Z,99.90
2018-06-07T17:50:11.561Z,99.90
2018-06-07T17:52:39.652Z,99.90
2018-06-07T17:57:35.310Z,99.90
2018-06-07T18:00:03.437Z,99.90
2018-06-07T18:02:31.542Z,99.90
2018-06-07T18:04:59.638Z,99.90
2018-06-07T18:07:27.671Z,99.90
2018-06-07T18:09:55.759Z,99.90
2018-06-07T18:12:23.914Z,99.90
2018-06-07T18:14:51.977Z,99.90
2018-06-07T18:17:20.127Z,99.90
2018-06-07T18:19:48.197Z,99.90
2018-06-07T18:22:16.295Z,99.90
2018-06-07T18:24:44.339Z,99.90
2018-06-07T18:27:12.414Z,99.90
2018-06-07T18:29:40.514Z,99.90
2018-06-07T18:32:08.571Z,99.90
2018-06-07T18:34:36.647Z,99.90
2018-06-07T18:37:04.755Z,99.90
2018-06-07T18:39:32.829Z,99.90
2018-06-07T18:42:00.930Z,99.90
2018-06-07T18:44:28.982Z,99.90
2018-06-07T18:46:57.136Z,99.90
2018-06-07T18:49:25.205Z,99.90
2018-06-07T18:51:53.286Z,99.90
2018-06-07T18:54:21.384Z,99.90
2018-06-07T18:56:49.430Z,99.90
2018-06-07T18:59:17.499Z,99.90
2018-06-07T19:01:45.542Z,99.90
2018-06-07T19:04:13.608Z,99.90
2018-06-07T19:06:41.685Z,99.90
2018-06-07T19:09:14.957Z,99.90
2018-06-07T19:11:43.030Z,99.90
2018-06-07T19:14:16.404Z,99.90
2018-06-07T19:16:44.493Z,99.90
2018-06-07T19:19:17.712Z,99.90
2018-06-07T19:21:45.809Z,99.90
2018-06-07T19:24:13.913Z,99.90
2018-06-07T19:26:47.234Z,99.90
2018-06-07T19:29:15.313Z,99.90
2018-06-07T19:31:48.690Z,99.90
2018-06-07T19:34:22.093Z,99.90
2018-06-07T19:36:50.232Z,99.90
2018-06-07T19:39:23.601Z,99.90
2018-06-07T20:25:38.498Z,99.90
2018-06-07T20:28:06.637Z,99.90
2018-06-07T20:30:35.129Z,99.90
2018-06-07T20:33:03.236Z,99.90
2018-06-07T20:35:31.277Z,99.90
2018-06-07T20:37:59.446Z,99.90
2018-06-07T20:40:27.528Z,99.90
2018-06-07T20:42:55.582Z,99.90
2018-06-07T20:45:23.670Z,99.90
2018-06-07T20:47:51.738Z,99.90
2018-06-07T20:50:19.880Z,99.90
2018-06-07T20:52:47.973Z,99.90
2018-06-07T20:55:16.031Z,99.90
2018-06-07T20:57:44.089Z,99.90
2018-06-07T21:00:12.170Z,99.90
2018-06-07T21:02:45.725Z,99.90
2018-06-07T21:05:13.799Z,99.90
2018-06-07T21:07:41.845Z,99.90
2018-06-07T21:10:09.935Z,99.90
2018-06-07T21:12:37.989Z,99.90
2018-06-07T21:15:06.109Z,99.90
2018-06-07T21:17:34.174Z,99.90
2018-06-07T21:20:02.254Z,99.90
2018-06-07T21:22:30.460Z,99.90
2018-06-07T21:24:58.619Z,99.90
2018-06-07T21:27:26.806Z,99.90
2018-06-07T21:29:55.019Z,99.90
2018-06-07T21:32:23.239Z,99.90
2018-06-07T21:34:51.492Z,99.90
2018-06-07T21:37:19.794Z,99.90
2018-06-07T21:39:48.012Z,99.90
2018-06-07T21:42:16.282Z,99.90
2018-06-07T21:44:44.570Z,99.90
2018-06-07T21:47:12.833Z,99.90
2018-06-07T21:49:41.058Z,99.90
2018-06-07T21:52:09.362Z,99.90
2018-06-07T21:54:37.580Z,99.90
2018-06-07T21:57:05.759Z,99.90
2018-06-07T21:59:34.054Z,99.90
2018-06-07T22:02:02.248Z,99.90
2018-06-07T22:04:30.504Z,99.90
2018-06-07T22:06:58.822Z,99.90
2018-06-07T22:09:27.080Z,99.90
2018-06-07T22:11:55.351Z,99.90
2018-06-07T22:14:23.541Z,99.90
2018-06-07T22:16:51.746Z,99.90
2018-06-07T22:19:19.986Z,99.90
2018-06-07T22:21:48.175Z,99.90
2018-06-07T22:26:44.007Z,99.90
2018-06-07T22:29:12.277Z,99.90
2018-06-07T22:31:40.450Z,99.90
2018-06-07T22:34:08.657Z,99.90
2018-06-07T22:36:36.930Z,99.90
2018-06-07T22:39:06.757Z,99.90
2018-06-07T22:41:34.965Z,99.90
2018-06-07T22:44:03.327Z,99.90
2018-06-07T22:46:31.582Z,99.90
2018-06-07T22:48:59.822Z,99.90
2018-06-07T22:51:28.059Z,99.90
2018-06-07T22:53:56.315Z,99.90
2018-06-07T22:56:24.495Z,99.90
2018-06-07T22:58:52.684Z,99.90
2018-06-07T23:01:20.902Z,99.90
2018-06-07T23:03:49.058Z,99.90
2018-06-07T23:06:17.278Z,99.90
2018-06-07T23:08:45.451Z,99.90
2018-06-07T23:11:13.770Z,99.90
2018-06-07T23:13:41.926Z,99.90
2018-06-07T23:16:09.977Z,99.90
2018-06-07T23:18:38.067Z,99.90
2018-06-07T23:21:06.240Z,99.90
2018-06-07T23:23:34.274Z,99.90
2018-06-07T23:26:02.438Z,99.90
2018-06-07T23:28:30.484Z,99.90
2018-06-07T23:30:58.600Z,99.90
2018-06-07T23:33:26.709Z,99.90
2018-06-07T23:35:54.800Z,99.90
2018-06-07T23:38:22.931Z,99.90
2018-06-07T23:40:50.997Z,99.90
2018-06-07T23:43:19.085Z,99.90
2018-06-07T23:45:47.208Z,99.90
2018-06-07T23:48:15.261Z,99.90
2018-06-07T23:50:43.370Z,99.90
2018-06-07T23:53:11.389Z,99.90
2018-06-07T23:55:39.490Z,99.90
2018-06-07T23:58:07.545Z,99.90
